sensor_id;sensor_type;location;lat;lon;timestamp;temperature;humidity
15107;DHT22;7654;45.308;-75.096;2023-05-14T00:00:33;15.70;66.30
15107;DHT22;7654;45.308;-75.096;2023-05-14T00:03:03;15.50;67.40
15107;DHT22;7654;45.308;-75.096;2023-05-14T00:05:36;15.30;65.60
15107;DHT22;7654;45.308;-75.096;2023-05-14T00:08:06;15.00;66.10
15107;DHT22;7654;45.308;-75.096;2023-05-14T00:10:37;14.80;66.60
15107;DHT22;7654;45.308;-75.096;2023-05-14T00:13:07;14.60;67.60
15107;DHT22;7654;45.308;-75.096;2023-05-14T00:15:38;14.40;68.10
15107;DHT22;7654;45.308;-75.096;2023-05-14T00:18:08;14.20;68.20
15107;DHT22;7654;45.308;-75.096;2023-05-14T00:20:41;14.00;69.30
15107;DHT22;7654;45.308;-75.096;2023-05-14T00:23:11;13.90;69.90
15107;DHT22;7654;45.308;-75.096;2023-05-14T00:25:41;13.70;69.70
15107;DHT22;7654;45.308;-75.096;2023-05-14T00:28:12;13.70;69.70
15107;DHT22;7654;45.308;-75.096;2023-05-14T00:30:43;13.60;71.40
15107;DHT22;7654;45.308;-75.096;2023-05-14T00:33:14;13.50;70.30
15107;DHT22;7654;45.308;-75.096;2023-05-14T00:35:47;13.50;71.20
15107;DHT22;7654;45.308;-75.096;2023-05-14T00:38:17;13.40;70.90
15107;DHT22;7654;45.308;-75.096;2023-05-14T00:40:48;13.30;71.10
15107;DHT22;7654;45.308;-75.096;2023-05-14T00:43:19;13.10;71.80
15107;DHT22;7654;45.308;-75.096;2023-05-14T00:45:50;13.00;72.50
15107;DHT22;7654;45.308;-75.096;2023-05-14T00:48:21;12.80;72.30
15107;DHT22;7654;45.308;-75.096;2023-05-14T00:50:53;12.80;71.90
15107;DHT22;7654;45.308;-75.096;2023-05-14T00:53:24;12.70;72.40
15107;DHT22;7654;45.308;-75.096;2023-05-14T00:55:54;12.60;72.70
15107;DHT22;7654;45.308;-75.096;2023-05-14T00:58:25;12.50;73.10
15107;DHT22;7654;45.308;-75.096;2023-05-14T01:00:57;12.40;73.50
15107;DHT22;7654;45.308;-75.096;2023-05-14T01:03:28;12.30;73.60
15107;DHT22;7654;45.308;-75.096;2023-05-14T01:06:07;12.30;74.30
15107;DHT22;7654;45.308;-75.096;2023-05-14T01:08:48;12.20;74.10
15107;DHT22;7654;45.308;-75.096;2023-05-14T01:11:23;12.10;74.70
15107;DHT22;7654;45.308;-75.096;2023-05-14T01:14:00;12.00;74.80
15107;DHT22;7654;45.308;-75.096;2023-05-14T01:16:33;12.00;74.80
15107;DHT22;7654;45.308;-75.096;2023-05-14T01:19:06;11.90;75.40
15107;DHT22;7654;45.308;-75.096;2023-05-14T01:21:42;11.80;75.00
15107;DHT22;7654;45.308;-75.096;2023-05-14T01:24:13;11.70;75.40
15107;DHT22;7654;45.308;-75.096;2023-05-14T01:26:44;11.60;76.90
15107;DHT22;7654;45.308;-75.096;2023-05-14T01:29:20;11.50;76.60
15107;DHT22;7654;45.308;-75.096;2023-05-14T01:31:53;11.50;76.20
15107;DHT22;7654;45.308;-75.096;2023-05-14T01:34:26;11.40;77.70
15107;DHT22;7654;45.308;-75.096;2023-05-14T01:37:00;11.30;77.30
15107;DHT22;7654;45.308;-75.096;2023-05-14T01:39:33;11.30;77.20
15107;DHT22;7654;45.308;-75.096;2023-05-14T01:42:06;11.20;77.10
15107;DHT22;7654;45.308;-75.096;2023-05-14T01:44:37;11.20;77.40
15107;DHT22;7654;45.308;-75.096;2023-05-14T01:47:07;11.10;77.60
15107;DHT22;7654;45.308;-75.096;2023-05-14T01:49:37;11.10;77.90
15107;DHT22;7654;45.308;-75.096;2023-05-14T01:52:09;11.00;78.80
15107;DHT22;7654;45.308;-75.096;2023-05-14T01:54:40;10.90;79.20
15107;DHT22;7654;45.308;-75.096;2023-05-14T01:57:11;10.80;79.70
15107;DHT22;7654;45.308;-75.096;2023-05-14T01:59:41;10.60;79.70
15107;DHT22;7654;45.308;-75.096;2023-05-14T02:02:11;10.40;80.70
15107;DHT22;7654;45.308;-75.096;2023-05-14T02:04:42;10.30;81.00
15107;DHT22;7654;45.308;-75.096;2023-05-14T02:07:13;10.20;81.60
15107;DHT22;7654;45.308;-75.096;2023-05-14T02:09:44;10.10;82.20
15107;DHT22;7654;45.308;-75.096;2023-05-14T02:12:14;10.00;82.80
15107;DHT22;7654;45.308;-75.096;2023-05-14T02:14:45;9.90;84.60
15107;DHT22;7654;45.308;-75.096;2023-05-14T02:17:15;9.80;85.90
15107;DHT22;7654;45.308;-75.096;2023-05-14T02:19:45;9.80;86.10
15107;DHT22;7654;45.308;-75.096;2023-05-14T02:22:17;9.80;87.00
15107;DHT22;7654;45.308;-75.096;2023-05-14T02:24:47;9.70;86.10
15107;DHT22;7654;45.308;-75.096;2023-05-14T02:27:18;9.80;85.50
15107;DHT22;7654;45.308;-75.096;2023-05-14T02:29:49;9.70;87.00
15107;DHT22;7654;45.308;-75.096;2023-05-14T02:32:19;9.60;87.30
15107;DHT22;7654;45.308;-75.096;2023-05-14T02:34:49;9.50;87.00
15107;DHT22;7654;45.308;-75.096;2023-05-14T02:37:21;9.40;87.40
15107;DHT22;7654;45.308;-75.096;2023-05-14T02:39:51;9.30;87.60
15107;DHT22;7654;45.308;-75.096;2023-05-14T02:42:22;9.20;88.90
15107;DHT22;7654;45.308;-75.096;2023-05-14T02:44:52;9.20;89.50
15107;DHT22;7654;45.308;-75.096;2023-05-14T02:47:23;9.10;90.10
15107;DHT22;7654;45.308;-75.096;2023-05-14T02:49:53;9.00;90.00
15107;DHT22;7654;45.308;-75.096;2023-05-14T02:52:25;9.00;90.50
15107;DHT22;7654;45.308;-75.096;2023-05-14T02:54:55;9.00;90.50
15107;DHT22;7654;45.308;-75.096;2023-05-14T02:57:25;8.90;90.80
15107;DHT22;7654;45.308;-75.096;2023-05-14T02:59:56;8.80;90.90
15107;DHT22;7654;45.308;-75.096;2023-05-14T03:02:26;8.70;91.40
15107;DHT22;7654;45.308;-75.096;2023-05-14T03:04:57;8.50;91.60
15107;DHT22;7654;45.308;-75.096;2023-05-14T03:07:29;8.50;91.90
15107;DHT22;7654;45.308;-75.096;2023-05-14T03:09:59;8.40;92.00
15107;DHT22;7654;45.308;-75.096;2023-05-14T03:12:30;8.40;92.20
15107;DHT22;7654;45.308;-75.096;2023-05-14T03:15:00;8.40;92.20
15107;DHT22;7654;45.308;-75.096;2023-05-14T03:17:30;8.40;92.10
15107;DHT22;7654;45.308;-75.096;2023-05-14T03:20:01;8.50;91.70
15107;DHT22;7654;45.308;-75.096;2023-05-14T03:22:33;8.50;92.00
15107;DHT22;7654;45.308;-75.096;2023-05-14T03:25:04;8.60;91.90
15107;DHT22;7654;45.308;-75.096;2023-05-14T03:27:34;8.70;91.50
15107;DHT22;7654;45.308;-75.096;2023-05-14T03:30:07;8.70;91.60
15107;DHT22;7654;45.308;-75.096;2023-05-14T03:32:38;8.80;91.40
15107;DHT22;7654;45.308;-75.096;2023-05-14T03:35:08;8.80;91.60
15107;DHT22;7654;45.308;-75.096;2023-05-14T03:37:40;8.80;91.40
15107;DHT22;7654;45.308;-75.096;2023-05-14T03:40:11;8.70;91.50
15107;DHT22;7654;45.308;-75.096;2023-05-14T03:42:41;8.80;91.10
15107;DHT22;7654;45.308;-75.096;2023-05-14T03:45:12;8.80;91.10
15107;DHT22;7654;45.308;-75.096;2023-05-14T03:47:42;8.70;91.30
15107;DHT22;7654;45.308;-75.096;2023-05-14T03:50:12;8.60;91.50
15107;DHT22;7654;45.308;-75.096;2023-05-14T03:52:44;8.60;91.30
15107;DHT22;7654;45.308;-75.096;2023-05-14T03:55:15;8.50;91.50
15107;DHT22;7654;45.308;-75.096;2023-05-14T03:57:46;8.40;92.10
15107;DHT22;7654;45.308;-75.096;2023-05-14T04:00:17;8.40;91.70
15107;DHT22;7654;45.308;-75.096;2023-05-14T04:02:47;8.30;92.20
15107;DHT22;7654;45.308;-75.096;2023-05-14T04:05:18;8.20;92.50
15107;DHT22;7654;45.308;-75.096;2023-05-14T04:07:50;8.20;92.60
15107;DHT22;7654;45.308;-75.096;2023-05-14T04:10:20;8.20;92.70
15107;DHT22;7654;45.308;-75.096;2023-05-14T04:12:51;8.00;93.30
15107;DHT22;7654;45.308;-75.096;2023-05-14T04:15:22;7.90;94.10
15107;DHT22;7654;45.308;-75.096;2023-05-14T04:17:52;7.70;94.20
15107;DHT22;7654;45.308;-75.096;2023-05-14T04:20:22;7.60;94.60
15107;DHT22;7654;45.308;-75.096;2023-05-14T04:22:55;7.40;95.20
15107;DHT22;7654;45.308;-75.096;2023-05-14T04:25:25;7.20;95.90
15107;DHT22;7654;45.308;-75.096;2023-05-14T04:27:55;7.20;96.30
15107;DHT22;7654;45.308;-75.096;2023-05-14T04:30:25;7.00;96.90
15107;DHT22;7654;45.308;-75.096;2023-05-14T04:32:55;6.90;98.40
15107;DHT22;7654;45.308;-75.096;2023-05-14T04:35:26;6.90;98.60
15107;DHT22;7654;45.308;-75.096;2023-05-14T04:37:58;6.80;98.90
15107;DHT22;7654;45.308;-75.096;2023-05-14T04:40:28;6.70;99.50
15107;DHT22;7654;45.308;-75.096;2023-05-14T04:42:59;6.60;99.80
15107;DHT22;7654;45.308;-75.096;2023-05-14T04:45:30;6.30;99.90
15107;DHT22;7654;45.308;-75.096;2023-05-14T04:48:01;6.10;99.90
15107;DHT22;7654;45.308;-75.096;2023-05-14T04:50:32;6.10;99.90
15107;DHT22;7654;45.308;-75.096;2023-05-14T04:53:04;6.20;99.90
15107;DHT22;7654;45.308;-75.096;2023-05-14T04:55:35;6.30;99.90
15107;DHT22;7654;45.308;-75.096;2023-05-14T04:58:05;6.40;99.90
15107;DHT22;7654;45.308;-75.096;2023-05-14T05:00:44;6.40;99.90
15107;DHT22;7654;45.308;-75.096;2023-05-14T05:03:15;6.40;99.90
15107;DHT22;7654;45.308;-75.096;2023-05-14T05:05:45;6.30;99.90
15107;DHT22;7654;45.308;-75.096;2023-05-14T05:08:17;6.30;99.90
15107;DHT22;7654;45.308;-75.096;2023-05-14T05:10:47;6.20;99.90
15107;DHT22;7654;45.308;-75.096;2023-05-14T05:13:18;6.10;99.90
15107;DHT22;7654;45.308;-75.096;2023-05-14T05:15:48;6.00;99.90
15107;DHT22;7654;45.308;-75.096;2023-05-14T05:18:18;5.90;99.90
15107;DHT22;7654;45.308;-75.096;2023-05-14T05:20:49;5.90;99.90
15107;DHT22;7654;45.308;-75.096;2023-05-14T05:23:21;5.80;99.90
15107;DHT22;7654;45.308;-75.096;2023-05-14T05:25:51;5.70;99.90
15107;DHT22;7654;45.308;-75.096;2023-05-14T05:28:21;5.70;99.90
15107;DHT22;7654;45.308;-75.096;2023-05-14T05:30:51;5.70;99.90
15107;DHT22;7654;45.308;-75.096;2023-05-14T05:33:22;5.70;99.90
15107;DHT22;7654;45.308;-75.096;2023-05-14T05:35:52;5.80;99.90
15107;DHT22;7654;45.308;-75.096;2023-05-14T05:38:24;5.90;99.90
15107;DHT22;7654;45.308;-75.096;2023-05-14T05:40:55;5.80;99.90
15107;DHT22;7654;45.308;-75.096;2023-05-14T05:43:25;5.80;99.90
15107;DHT22;7654;45.308;-75.096;2023-05-14T05:45:56;5.80;99.90
15107;DHT22;7654;45.308;-75.096;2023-05-14T05:48:26;5.90;99.90
15107;DHT22;7654;45.308;-75.096;2023-05-14T05:50:56;5.80;99.90
15107;DHT22;7654;45.308;-75.096;2023-05-14T05:53:29;5.80;99.90
15107;DHT22;7654;45.308;-75.096;2023-05-14T05:55:59;5.90;99.90
15107;DHT22;7654;45.308;-75.096;2023-05-14T05:58:30;6.10;99.90
15107;DHT22;7654;45.308;-75.096;2023-05-14T06:01:00;6.30;99.90
15107;DHT22;7654;45.308;-75.096;2023-05-14T06:03:31;6.40;99.90
15107;DHT22;7654;45.308;-75.096;2023-05-14T06:06:01;6.50;99.90
15107;DHT22;7654;45.308;-75.096;2023-05-14T06:08:33;6.50;99.90
15107;DHT22;7654;45.308;-75.096;2023-05-14T06:11:03;6.50;99.90
15107;DHT22;7654;45.308;-75.096;2023-05-14T06:13:34;6.50;99.90
15107;DHT22;7654;45.308;-75.096;2023-05-14T06:16:04;6.50;99.90
15107;DHT22;7654;45.308;-75.096;2023-05-14T06:18:35;6.60;99.90
15107;DHT22;7654;45.308;-75.096;2023-05-14T06:21:05;6.60;99.90
15107;DHT22;7654;45.308;-75.096;2023-05-14T06:23:37;6.50;99.90
15107;DHT22;7654;45.308;-75.096;2023-05-14T06:26:08;6.50;99.90
15107;DHT22;7654;45.308;-75.096;2023-05-14T06:28:38;6.50;99.90
15107;DHT22;7654;45.308;-75.096;2023-05-14T06:31:09;6.50;99.90
15107;DHT22;7654;45.308;-75.096;2023-05-14T06:33:39;6.40;99.90
15107;DHT22;7654;45.308;-75.096;2023-05-14T06:36:09;6.30;99.90
15107;DHT22;7654;45.308;-75.096;2023-05-14T06:38:42;6.20;99.90
15107;DHT22;7654;45.308;-75.096;2023-05-14T06:41:12;6.10;99.90
15107;DHT22;7654;45.308;-75.096;2023-05-14T06:43:42;6.00;99.90
15107;DHT22;7654;45.308;-75.096;2023-05-14T06:46:12;5.80;99.90
15107;DHT22;7654;45.308;-75.096;2023-05-14T06:48:43;5.80;99.90
15107;DHT22;7654;45.308;-75.096;2023-05-14T06:51:13;5.70;99.90
15107;DHT22;7654;45.308;-75.096;2023-05-14T06:53:45;5.60;99.90
15107;DHT22;7654;45.308;-75.096;2023-05-14T06:56:16;5.50;99.90
15107;DHT22;7654;45.308;-75.096;2023-05-14T06:58:46;5.40;99.90
15107;DHT22;7654;45.308;-75.096;2023-05-14T07:01:16;5.30;99.90
15107;DHT22;7654;45.308;-75.096;2023-05-14T07:03:47;5.20;99.90
15107;DHT22;7654;45.308;-75.096;2023-05-14T07:06:17;5.10;99.90
15107;DHT22;7654;45.308;-75.096;2023-05-14T07:08:49;5.00;99.90
15107;DHT22;7654;45.308;-75.096;2023-05-14T07:11:20;5.00;99.90
15107;DHT22;7654;45.308;-75.096;2023-05-14T07:13:50;5.00;99.90
15107;DHT22;7654;45.308;-75.096;2023-05-14T07:16:21;4.90;99.90
15107;DHT22;7654;45.308;-75.096;2023-05-14T07:18:51;4.80;99.90
15107;DHT22;7654;45.308;-75.096;2023-05-14T07:21:22;4.80;99.90
15107;DHT22;7654;45.308;-75.096;2023-05-14T07:23:54;4.70;99.90
15107;DHT22;7654;45.308;-75.096;2023-05-14T07:26:24;4.60;99.90
15107;DHT22;7654;45.308;-75.096;2023-05-14T07:28:54;4.60;99.90
15107;DHT22;7654;45.308;-75.096;2023-05-14T07:31:25;4.60;99.90
15107;DHT22;7654;45.308;-75.096;2023-05-14T07:33:56;4.60;99.90
15107;DHT22;7654;45.308;-75.096;2023-05-14T07:36:26;4.70;99.90
15107;DHT22;7654;45.308;-75.096;2023-05-14T07:38:58;4.80;99.90
15107;DHT22;7654;45.308;-75.096;2023-05-14T07:41:29;4.80;99.90
15107;DHT22;7654;45.308;-75.096;2023-05-14T07:43:59;5.00;99.90
15107;DHT22;7654;45.308;-75.096;2023-05-14T07:46:29;5.20;99.90
15107;DHT22;7654;45.308;-75.096;2023-05-14T07:49:00;5.30;99.90
15107;DHT22;7654;45.308;-75.096;2023-05-14T07:51:30;5.40;99.90
15107;DHT22;7654;45.308;-75.096;2023-05-14T07:54:02;5.50;99.90
15107;DHT22;7654;45.308;-75.096;2023-05-14T07:56:33;5.60;99.90
15107;DHT22;7654;45.308;-75.096;2023-05-14T07:59:03;5.70;99.90
15107;DHT22;7654;45.308;-75.096;2023-05-14T08:01:34;5.70;99.90
15107;DHT22;7654;45.308;-75.096;2023-05-14T08:04:07;5.70;99.90
15107;DHT22;7654;45.308;-75.096;2023-05-14T08:06:38;5.70;99.90
15107;DHT22;7654;45.308;-75.096;2023-05-14T08:09:11;5.70;99.90
15107;DHT22;7654;45.308;-75.096;2023-05-14T08:11:41;5.70;99.90
15107;DHT22;7654;45.308;-75.096;2023-05-14T08:14:11;5.80;99.90
15107;DHT22;7654;45.308;-75.096;2023-05-14T08:16:41;5.80;99.90
15107;DHT22;7654;45.308;-75.096;2023-05-14T08:19:12;5.90;99.90
15107;DHT22;7654;45.308;-75.096;2023-05-14T08:21:43;5.90;99.90
15107;DHT22;7654;45.308;-75.096;2023-05-14T08:24:15;5.90;99.90
15107;DHT22;7654;45.308;-75.096;2023-05-14T08:26:45;6.00;99.90
15107;DHT22;7654;45.308;-75.096;2023-05-14T08:29:15;6.10;99.90
15107;DHT22;7654;45.308;-75.096;2023-05-14T08:31:45;6.10;99.90
15107;DHT22;7654;45.308;-75.096;2023-05-14T08:34:16;6.20;99.90
15107;DHT22;7654;45.308;-75.096;2023-05-14T08:36:46;6.20;99.90
15107;DHT22;7654;45.308;-75.096;2023-05-14T08:39:18;6.20;99.90
15107;DHT22;7654;45.308;-75.096;2023-05-14T08:41:48;6.20;99.90
15107;DHT22;7654;45.308;-75.096;2023-05-14T08:44:21;6.20;99.90
15107;DHT22;7654;45.308;-75.096;2023-05-14T08:46:54;6.00;99.90
15107;DHT22;7654;45.308;-75.096;2023-05-14T08:49:36;5.90;99.90
15107;DHT22;7654;45.308;-75.096;2023-05-14T08:52:09;5.60;99.90
15107;DHT22;7654;45.308;-75.096;2023-05-14T08:54:41;5.30;99.90
15107;DHT22;7654;45.308;-75.096;2023-05-14T08:57:12;5.10;99.90
15107;DHT22;7654;45.308;-75.096;2023-05-14T08:59:43;4.80;99.90
15107;DHT22;7654;45.308;-75.096;2023-05-14T09:02:14;4.60;99.90
15107;DHT22;7654;45.308;-75.096;2023-05-14T09:04:45;4.50;99.90
15107;DHT22;7654;45.308;-75.096;2023-05-14T09:07:16;4.50;99.90
15107;DHT22;7654;45.308;-75.096;2023-05-14T09:09:48;4.40;99.90
15107;DHT22;7654;45.308;-75.096;2023-05-14T09:12:19;4.30;99.90
15107;DHT22;7654;45.308;-75.096;2023-05-14T09:14:50;4.10;99.90
15107;DHT22;7654;45.308;-75.096;2023-05-14T09:17:21;4.00;99.90
15107;DHT22;7654;45.308;-75.096;2023-05-14T09:19:54;3.80;99.90
15107;DHT22;7654;45.308;-75.096;2023-05-14T09:22:24;3.80;99.90
15107;DHT22;7654;45.308;-75.096;2023-05-14T09:25:04;3.70;99.90
15107;DHT22;7654;45.308;-75.096;2023-05-14T09:27:35;3.70;99.90
15107;DHT22;7654;45.308;-75.096;2023-05-14T09:30:08;3.60;99.90
15107;DHT22;7654;45.308;-75.096;2023-05-14T09:32:39;3.60;99.90
15107;DHT22;7654;45.308;-75.096;2023-05-14T09:35:15;3.60;99.90
15107;DHT22;7654;45.308;-75.096;2023-05-14T09:37:47;3.60;99.90
15107;DHT22;7654;45.308;-75.096;2023-05-14T09:40:20;3.60;99.90
15107;DHT22;7654;45.308;-75.096;2023-05-14T09:42:51;3.50;99.90
15107;DHT22;7654;45.308;-75.096;2023-05-14T09:45:22;3.40;99.90
15107;DHT22;7654;45.308;-75.096;2023-05-14T09:47:52;3.40;99.90
15107;DHT22;7654;45.308;-75.096;2023-05-14T09:50:23;3.40;99.90
15107;DHT22;7654;45.308;-75.096;2023-05-14T09:52:54;3.40;99.90
15107;DHT22;7654;45.308;-75.096;2023-05-14T09:55:27;3.40;99.90
15107;DHT22;7654;45.308;-75.096;2023-05-14T09:57:57;3.30;99.90
15107;DHT22;7654;45.308;-75.096;2023-05-14T10:00:29;3.30;99.90
15107;DHT22;7654;45.308;-75.096;2023-05-14T10:03:05;3.20;99.90
15107;DHT22;7654;45.308;-75.096;2023-05-14T10:05:36;3.20;99.90
15107;DHT22;7654;45.308;-75.096;2023-05-14T10:08:13;3.10;99.90
15107;DHT22;7654;45.308;-75.096;2023-05-14T10:10:45;3.20;99.90
15107;DHT22;7654;45.308;-75.096;2023-05-14T10:13:19;3.20;99.90
15107;DHT22;7654;45.308;-75.096;2023-05-14T10:15:53;3.20;99.90
15107;DHT22;7654;45.308;-75.096;2023-05-14T10:18:25;3.30;99.90
15107;DHT22;7654;45.308;-75.096;2023-05-14T10:21:02;3.40;99.90
15107;DHT22;7654;45.308;-75.096;2023-05-14T10:23:33;3.50;99.90
15107;DHT22;7654;45.308;-75.096;2023-05-14T10:26:07;3.60;99.90
15107;DHT22;7654;45.308;-75.096;2023-05-14T10:28:38;3.70;99.90
15107;DHT22;7654;45.308;-75.096;2023-05-14T10:31:09;3.80;99.90
15107;DHT22;7654;45.308;-75.096;2023-05-14T10:33:46;3.90;99.90
15107;DHT22;7654;45.308;-75.096;2023-05-14T10:36:18;4.00;99.90
15107;DHT22;7654;45.308;-75.096;2023-05-14T10:38:54;4.10;99.90
15107;DHT22;7654;45.308;-75.096;2023-05-14T10:41:26;4.10;99.90
15107;DHT22;7654;45.308;-75.096;2023-05-14T10:43:57;4.10;99.90
15107;DHT22;7654;45.308;-75.096;2023-05-14T10:46:28;4.20;99.90
15107;DHT22;7654;45.308;-75.096;2023-05-14T10:48:58;4.30;99.90
15107;DHT22;7654;45.308;-75.096;2023-05-14T10:51:29;4.30;99.90
15107;DHT22;7654;45.308;-75.096;2023-05-14T10:54:00;4.40;99.90
15107;DHT22;7654;45.308;-75.096;2023-05-14T10:56:33;4.40;99.90
15107;DHT22;7654;45.308;-75.096;2023-05-14T10:59:06;4.40;99.90
15107;DHT22;7654;45.308;-75.096;2023-05-14T11:01:39;4.60;99.90
15107;DHT22;7654;45.308;-75.096;2023-05-14T11:04:17;4.70;99.90
15107;DHT22;7654;45.308;-75.096;2023-05-14T11:06:48;4.90;99.90
15107;DHT22;7654;45.308;-75.096;2023-05-14T11:09:21;5.00;99.90
15107;DHT22;7654;45.308;-75.096;2023-05-14T11:11:53;5.10;99.90
15107;DHT22;7654;45.308;-75.096;2023-05-14T11:14:24;5.30;99.90
15107;DHT22;7654;45.308;-75.096;2023-05-14T11:16:55;5.50;99.90
15107;DHT22;7654;45.308;-75.096;2023-05-14T11:19:26;5.70;99.90
15107;DHT22;7654;45.308;-75.096;2023-05-14T11:21:56;5.80;99.90
15107;DHT22;7654;45.308;-75.096;2023-05-14T11:24:28;6.00;99.90
15107;DHT22;7654;45.308;-75.096;2023-05-14T11:27:00;6.10;99.90
15107;DHT22;7654;45.308;-75.096;2023-05-14T11:29:30;6.30;99.90
15107;DHT22;7654;45.308;-75.096;2023-05-14T11:32:03;6.40;99.90
15107;DHT22;7654;45.308;-75.096;2023-05-14T11:34:34;6.60;99.90
15107;DHT22;7654;45.308;-75.096;2023-05-14T11:37:04;6.80;99.90
15107;DHT22;7654;45.308;-75.096;2023-05-14T11:39:35;6.90;99.90
15107;DHT22;7654;45.308;-75.096;2023-05-14T11:42:11;7.10;99.90
15107;DHT22;7654;45.308;-75.096;2023-05-14T11:44:45;7.20;99.90
15107;DHT22;7654;45.308;-75.096;2023-05-14T11:47:17;7.30;99.90
15107;DHT22;7654;45.308;-75.096;2023-05-14T11:49:48;7.50;99.90
15107;DHT22;7654;45.308;-75.096;2023-05-14T11:52:18;7.60;99.90
15107;DHT22;7654;45.308;-75.096;2023-05-14T11:54:49;7.70;99.90
15107;DHT22;7654;45.308;-75.096;2023-05-14T11:57:21;7.70;99.90
15107;DHT22;7654;45.308;-75.096;2023-05-14T11:59:55;7.70;99.90
15107;DHT22;7654;45.308;-75.096;2023-05-14T12:02:27;7.70;99.90
15107;DHT22;7654;45.308;-75.096;2023-05-14T12:04:59;7.70;99.90
15107;DHT22;7654;45.308;-75.096;2023-05-14T12:07:30;7.70;99.90
15107;DHT22;7654;45.308;-75.096;2023-05-14T12:10:01;7.70;99.90
15107;DHT22;7654;45.308;-75.096;2023-05-14T12:12:36;7.80;99.90
15107;DHT22;7654;45.308;-75.096;2023-05-14T12:15:10;7.80;99.90
15107;DHT22;7654;45.308;-75.096;2023-05-14T12:17:41;7.90;99.90
15107;DHT22;7654;45.308;-75.096;2023-05-14T12:20:12;8.00;99.90
15107;DHT22;7654;45.308;-75.096;2023-05-14T12:22:42;8.10;99.90
15107;DHT22;7654;45.308;-75.096;2023-05-14T12:25:12;8.10;99.90
15107;DHT22;7654;45.308;-75.096;2023-05-14T12:27:45;8.10;99.90
15107;DHT22;7654;45.308;-75.096;2023-05-14T12:30:15;8.20;99.90
15107;DHT22;7654;45.308;-75.096;2023-05-14T12:32:54;8.30;99.90
15107;DHT22;7654;45.308;-75.096;2023-05-14T12:35:24;8.40;99.90
15107;DHT22;7654;45.308;-75.096;2023-05-14T12:37:54;8.50;99.90
15107;DHT22;7654;45.308;-75.096;2023-05-14T12:40:24;8.60;99.90
15107;DHT22;7654;45.308;-75.096;2023-05-14T12:42:57;8.50;99.70
15107;DHT22;7654;45.308;-75.096;2023-05-14T12:45:27;8.60;99.90
15107;DHT22;7654;45.308;-75.096;2023-05-14T12:48:00;8.60;99.90
15107;DHT22;7654;45.308;-75.096;2023-05-14T12:50:30;8.70;99.90
15107;DHT22;7654;45.308;-75.096;2023-05-14T12:53:00;8.80;99.90
15107;DHT22;7654;45.308;-75.096;2023-05-14T12:55:31;8.90;99.90
15107;DHT22;7654;45.308;-75.096;2023-05-14T12:58:04;9.00;99.30
15107;DHT22;7654;45.308;-75.096;2023-05-14T13:00:35;9.00;98.90
15107;DHT22;7654;45.308;-75.096;2023-05-14T13:03:05;8.90;97.80
15107;DHT22;7654;45.308;-75.096;2023-05-14T13:05:36;8.90;99.00
15107;DHT22;7654;45.308;-75.096;2023-05-14T13:08:08;9.00;98.80
15107;DHT22;7654;45.308;-75.096;2023-05-14T13:10:38;9.10;99.90
15107;DHT22;7654;45.308;-75.096;2023-05-14T13:13:14;9.20;98.50
15107;DHT22;7654;45.308;-75.096;2023-05-14T13:15:45;9.40;99.80
15107;DHT22;7654;45.308;-75.096;2023-05-14T13:18:16;9.40;99.90
15107;DHT22;7654;45.308;-75.096;2023-05-14T13:20:46;9.50;97.70
15107;DHT22;7654;45.308;-75.096;2023-05-14T13:23:17;9.50;97.60
15107;DHT22;7654;45.308;-75.096;2023-05-14T13:25:48;9.50;97.80
15107;DHT22;7654;45.308;-75.096;2023-05-14T13:28:20;9.50;97.40
15107;DHT22;7654;45.308;-75.096;2023-05-14T13:31:04;9.60;97.40
15107;DHT22;7654;45.308;-75.096;2023-05-14T13:33:36;9.60;97.30
15107;DHT22;7654;45.308;-75.096;2023-05-14T13:36:07;9.70;97.60
15107;DHT22;7654;45.308;-75.096;2023-05-14T13:38:39;9.80;98.00
15107;DHT22;7654;45.308;-75.096;2023-05-14T13:41:09;9.90;96.60
15107;DHT22;7654;45.308;-75.096;2023-05-14T13:43:41;10.00;96.00
15107;DHT22;7654;45.308;-75.096;2023-05-14T13:46:11;10.10;96.10
15107;DHT22;7654;45.308;-75.096;2023-05-14T13:48:41;10.10;95.90
15107;DHT22;7654;45.308;-75.096;2023-05-14T13:51:12;10.20;95.70
15107;DHT22;7654;45.308;-75.096;2023-05-14T13:53:43;10.30;95.30
15107;DHT22;7654;45.308;-75.096;2023-05-14T13:56:13;10.40;96.10
15107;DHT22;7654;45.308;-75.096;2023-05-14T13:58:45;10.60;96.80
15107;DHT22;7654;45.308;-75.096;2023-05-14T14:01:16;10.70;95.30
15107;DHT22;7654;45.308;-75.096;2023-05-14T14:03:47;10.70;94.50
15107;DHT22;7654;45.308;-75.096;2023-05-14T14:06:17;10.70;95.80
15107;DHT22;7654;45.308;-75.096;2023-05-14T14:08:48;10.70;94.00
15107;DHT22;7654;45.308;-75.096;2023-05-14T14:11:18;10.80;96.70
15107;DHT22;7654;45.308;-75.096;2023-05-14T14:13:50;10.90;95.50
15107;DHT22;7654;45.308;-75.096;2023-05-14T14:16:21;11.10;94.00
15107;DHT22;7654;45.308;-75.096;2023-05-14T14:18:52;11.10;94.30
15107;DHT22;7654;45.308;-75.096;2023-05-14T14:21:22;11.20;93.80
15107;DHT22;7654;45.308;-75.096;2023-05-14T14:23:52;11.20;93.60
15107;DHT22;7654;45.308;-75.096;2023-05-14T14:26:23;11.40;94.80
15107;DHT22;7654;45.308;-75.096;2023-05-14T14:28:56;11.50;93.80
15107;DHT22;7654;45.308;-75.096;2023-05-14T14:31:26;11.60;92.60
15107;DHT22;7654;45.308;-75.096;2023-05-14T14:33:57;11.60;92.40
15107;DHT22;7654;45.308;-75.096;2023-05-14T14:36:27;11.60;92.40
15107;DHT22;7654;45.308;-75.096;2023-05-14T14:38:58;11.70;93.20
15107;DHT22;7654;45.308;-75.096;2023-05-14T14:41:28;11.70;90.90
15107;DHT22;7654;45.308;-75.096;2023-05-14T14:44:00;11.70;91.60
15107;DHT22;7654;45.308;-75.096;2023-05-14T14:46:30;11.80;91.30
15107;DHT22;7654;45.308;-75.096;2023-05-14T14:49:01;12.00;92.30
15107;DHT22;7654;45.308;-75.096;2023-05-14T14:51:31;12.00;91.80
15107;DHT22;7654;45.308;-75.096;2023-05-14T14:54:01;12.20;92.80
15107;DHT22;7654;45.308;-75.096;2023-05-14T14:56:33;12.30;90.90
15107;DHT22;7654;45.308;-75.096;2023-05-14T14:59:06;12.30;90.70
15107;DHT22;7654;45.308;-75.096;2023-05-14T15:01:38;12.30;91.00
15107;DHT22;7654;45.308;-75.096;2023-05-14T15:04:09;12.40;91.40
15107;DHT22;7654;45.308;-75.096;2023-05-14T15:06:39;12.60;92.90
15107;DHT22;7654;45.308;-75.096;2023-05-14T15:09:09;12.70;92.70
15107;DHT22;7654;45.308;-75.096;2023-05-14T15:11:40;12.80;91.40
15107;DHT22;7654;45.308;-75.096;2023-05-14T15:14:12;13.00;91.90
15107;DHT22;7654;45.308;-75.096;2023-05-14T15:16:42;13.10;86.80
15107;DHT22;7654;45.308;-75.096;2023-05-14T15:19:15;13.10;88.70
15107;DHT22;7654;45.308;-75.096;2023-05-14T15:21:45;13.00;86.20
15107;DHT22;7654;45.308;-75.096;2023-05-14T15:24:16;13.10;86.50
15107;DHT22;7654;45.308;-75.096;2023-05-14T15:26:46;13.20;90.20
15107;DHT22;7654;45.308;-75.096;2023-05-14T15:29:20;13.30;88.90
15107;DHT22;7654;45.308;-75.096;2023-05-14T15:31:50;13.40;88.00
15107;DHT22;7654;45.308;-75.096;2023-05-14T15:34:22;13.40;82.90
15107;DHT22;7654;45.308;-75.096;2023-05-14T15:36:52;13.40;83.60
15107;DHT22;7654;45.308;-75.096;2023-05-14T15:39:22;13.70;84.00
15107;DHT22;7654;45.308;-75.096;2023-05-14T15:41:54;13.80;85.50
15107;DHT22;7654;45.308;-75.096;2023-05-14T15:44:28;14.10;84.20
15107;DHT22;7654;45.308;-75.096;2023-05-14T15:46:59;14.10;83.20
15107;DHT22;7654;45.308;-75.096;2023-05-14T15:49:29;14.50;83.20
15107;DHT22;7654;45.308;-75.096;2023-05-14T15:52:00;14.60;81.70